sensor_id;sensor_type;location;lat;lon;timestamp;pressure;altitude;pressure_sealevel;temperature;humidity
28004;BME280;15330;51.234;6.754;2023-03-14T00:00:35;98669.53;;;11.12;97.38
28004;BME280;15330;51.234;6.754;2023-03-14T00:03:01;98669.13;;;11.15;97.48
28004;BME280;15330;51.234;6.754;2023-03-14T00:05:26;98666.44;;;11.15;96.88
28004;BME280;15330;51.234;6.754;2023-03-14T00:07:51;98642.75;;;11.18;97.44
28004;BME280;15330;51.234;6.754;2023-03-14T00:10:17;98635.84;;;11.29;96.73
28004;BME280;15330;51.234;6.754;2023-03-14T00:12:43;98624.50;;;11.52;96.81
28004;BME280;15330;51.234;6.754;2023-03-14T00:15:10;98618.59;;;11.25;96.72
28004;BME280;15330;51.234;6.754;2023-03-14T00:17:36;98628.34;;;11.37;96.45
28004;BME280;15330;51.234;6.754;2023-03-14T00:20:03;98630.66;;;11.34;96.38
28004;BME280;15330;51.234;6.754;2023-03-14T00:22:35;98636.69;;;11.29;96.34
28004;BME280;15330;51.234;6.754;2023-03-14T00:25:01;98650.28;;;11.28;96.45
28004;BME280;15330;51.234;6.754;2023-03-14T00:27:27;98663.06;;;11.26;96.64
28004;BME280;15330;51.234;6.754;2023-03-14T00:29:52;98667.28;;;11.33;96.19
28004;BME280;15330;51.234;6.754;2023-03-14T00:32:18;98698.19;;;11.54;96.43
28004;BME280;15330;51.234;6.754;2023-03-14T00:34:43;98718.88;;;11.47;100.00
28004;BME280;15330;51.234;6.754;2023-03-14T00:37:09;98748.03;;;11.06;100.00
28004;BME280;15330;51.234;6.754;2023-03-14T00:39:34;98741.97;;;10.54;100.00
28004;BME280;15330;51.234;6.754;2023-03-14T00:41:59;98735.69;;;10.35;100.00
28004;BME280;15330;51.234;6.754;2023-03-14T00:44:25;98720.31;;;10.24;100.00
28004;BME280;15330;51.234;6.754;2023-03-14T00:46:50;98706.75;;;10.12;100.00
28004;BME280;15330;51.234;6.754;2023-03-14T00:49:15;98716.97;;;10.28;100.00
28004;BME280;15330;51.234;6.754;2023-03-14T00:51:41;98696.25;;;10.24;100.00
28004;BME280;15330;51.234;6.754;2023-03-14T00:54:06;98691.97;;;10.16;100.00
28004;BME280;15330;51.234;6.754;2023-03-14T00:56:32;98692.16;;;10.15;100.00
28004;BME280;15330;51.234;6.754;2023-03-14T00:58:57;98690.16;;;10.04;100.00
28004;BME280;15330;51.234;6.754;2023-03-14T01:01:23;98700.25;;;9.95;100.00
28004;BME280;15330;51.234;6.754;2023-03-14T01:03:53;98686.50;;;9.91;100.00
28004;BME280;15330;51.234;6.754;2023-03-14T01:06:25;98678.72;;;9.77;100.00
28004;BME280;15330;51.234;6.754;2023-03-14T01:08:52;98691.66;;;9.80;100.00
28004;BME280;15330;51.234;6.754;2023-03-14T01:11:20;98678.97;;;9.62;100.00
28004;BME280;15330;51.234;6.754;2023-03-14T01:13:46;98687.81;;;9.63;100.00
28004;BME280;15330;51.234;6.754;2023-03-14T01:16:13;98680.00;;;9.61;100.00
28004;BME280;15330;51.234;6.754;2023-03-14T01:18:39;98687.19;;;9.61;100.00
28004;BME280;15330;51.234;6.754;2023-03-14T01:21:25;98684.50;;;9.67;100.00
28004;BME280;15330;51.234;6.754;2023-03-14T01:23:51;98691.72;;;9.60;100.00
28004;BME280;15330;51.234;6.754;2023-03-14T01:26:19;98679.59;;;9.57;100.00
28004;BME280;15330;51.234;6.754;2023-03-14T01:28:46;98673.06;;;9.53;100.00
28004;BME280;15330;51.234;6.754;2023-03-14T01:31:12;98666.03;;;9.59;100.00
28004;BME280;15330;51.234;6.754;2023-03-14T01:33:38;98666.25;;;9.57;100.00
28004;BME280;15330;51.234;6.754;2023-03-14T01:36:04;98658.69;;;9.54;100.00
28004;BME280;15330;51.234;6.754;2023-03-14T01:38:31;98644.50;;;9.61;100.00
28004;BME280;15330;51.234;6.754;2023-03-14T01:40:57;98656.81;;;9.62;100.00
28004;BME280;15330;51.234;6.754;2023-03-14T01:43:23;98656.59;;;9.63;100.00
28004;BME280;15330;51.234;6.754;2023-03-14T01:48:23;98651.00;;;9.78;100.00
28004;BME280;15330;51.234;6.754;2023-03-14T01:50:49;98648.50;;;9.89;100.00
28004;BME280;15330;51.234;6.754;2023-03-14T01:53:14;98647.47;;;9.90;100.00
28004;BME280;15330;51.234;6.754;2023-03-14T01:55:40;98653.59;;;9.98;100.00
28004;BME280;15330;51.234;6.754;2023-03-14T01:58:06;98649.94;;;9.92;100.00
28004;BME280;15330;51.234;6.754;2023-03-14T02:00:32;98646.44;;;9.91;100.00
28004;BME280;15330;51.234;6.754;2023-03-14T02:03:17;98632.22;;;9.98;100.00
28004;BME280;15330;51.234;6.754;2023-03-14T02:05:46;98641.47;;;10.02;100.00
28004;BME280;15330;51.234;6.754;2023-03-14T02:08:18;98630.97;;;10.00;100.00
28004;BME280;15330;51.234;6.754;2023-03-14T02:10:47;98630.81;;;9.95;100.00
28004;BME280;15330;51.234;6.754;2023-03-14T02:13:15;98641.28;;;9.97;100.00
28004;BME280;15330;51.234;6.754;2023-03-14T02:15:41;98640.06;;;9.92;100.00
28004;BME280;15330;51.234;6.754;2023-03-14T02:18:07;98644.19;;;9.88;100.00
28004;BME280;15330;51.234;6.754;2023-03-14T02:23:17;98634.09;;;9.90;100.00
28004;BME280;15330;51.234;6.754;2023-03-14T02:26:00;98648.28;;;9.91;100.00
28004;BME280;15330;51.234;6.754;2023-03-14T02:28:28;98641.28;;;9.90;100.00
28004;BME280;15330;51.234;6.754;2023-03-14T02:30:53;98657.31;;;9.90;100.00
28004;BME280;15330;51.234;6.754;2023-03-14T02:33:20;98656.50;;;9.89;100.00
28004;BME280;15330;51.234;6.754;2023-03-14T02:35:59;98653.81;;;9.89;100.00
28004;BME280;15330;51.234;6.754;2023-03-14T02:38:46;98653.25;;;9.81;100.00
28004;BME280;15330;51.234;6.754;2023-03-14T02:41:12;98655.31;;;9.85;100.00
28004;BME280;15330;51.234;6.754;2023-03-14T02:43:38;98647.03;;;9.93;100.00
28004;BME280;15330;51.234;6.754;2023-03-14T02:46:05;98648.06;;;9.92;100.00
28004;BME280;15330;51.234;6.754;2023-03-14T02:48:33;98642.53;;;9.94;100.00
28004;BME280;15330;51.234;6.754;2023-03-14T02:51:01;98636.16;;;9.88;100.00
28004;BME280;15330;51.234;6.754;2023-03-14T02:53:32;98632.88;;;9.86;100.00
28004;BME280;15330;51.234;6.754;2023-03-14T02:55:58;98636.38;;;9.87;100.00
28004;BME280;15330;51.234;6.754;2023-03-14T02:58:24;98634.31;;;9.89;100.00
28004;BME280;15330;51.234;6.754;2023-03-14T03:00:50;98635.53;;;9.93;100.00
28004;BME280;15330;51.234;6.754;2023-03-14T03:03:15;98631.22;;;9.92;100.00
28004;BME280;15330;51.234;6.754;2023-03-14T03:05:50;98628.34;;;9.93;100.00
28004;BME280;15330;51.234;6.754;2023-03-14T03:08:17;98623.84;;;9.94;100.00
28004;BME280;15330;51.234;6.754;2023-03-14T03:10:43;98619.69;;;9.98;100.00
28004;BME280;15330;51.234;6.754;2023-03-14T03:13:08;98608.44;;;9.89;100.00
28004;BME280;15330;51.234;6.754;2023-03-14T03:15:34;98606.78;;;9.95;100.00
28004;BME280;15330;51.234;6.754;2023-03-14T03:17:59;98608.84;;;9.93;100.00
28004;BME280;15330;51.234;6.754;2023-03-14T03:20:24;98626.09;;;9.90;100.00
28004;BME280;15330;51.234;6.754;2023-03-14T03:22:50;98610.69;;;9.92;100.00
28004;BME280;15330;51.234;6.754;2023-03-14T03:25:15;98615.41;;;9.90;100.00
28004;BME280;15330;51.234;6.754;2023-03-14T03:27:41;98614.22;;;9.80;100.00
28004;BME280;15330;51.234;6.754;2023-03-14T03:30:08;98620.38;;;9.80;100.00
28004;BME280;15330;51.234;6.754;2023-03-14T03:32:34;98620.38;;;9.80;100.00
28004;BME280;15330;51.234;6.754;2023-03-14T03:35:02;98630.25;;;9.80;100.00
28004;BME280;15330;51.234;6.754;2023-03-14T03:37:30;98618.38;;;9.76;100.00
28004;BME280;15330;51.234;6.754;2023-03-14T03:39:55;98618.59;;;9.68;100.00
28004;BME280;15330;51.234;6.754;2023-03-14T03:42:21;98614.06;;;9.68;100.00
28004;BME280;15330;51.234;6.754;2023-03-14T03:44:46;98610.41;;;9.63;100.00
28004;BME280;15330;51.234;6.754;2023-03-14T03:47:12;98607.28;;;9.66;100.00
28004;BME280;15330;51.234;6.754;2023-03-14T03:49:37;98606.50;;;9.58;100.00
28004;BME280;15330;51.234;6.754;2023-03-14T03:52:03;98599.16;;;9.54;100.00
28004;BME280;15330;51.234;6.754;2023-03-14T03:54:31;98599.97;;;9.54;100.00
28004;BME280;15330;51.234;6.754;2023-03-14T03:56:56;98598.25;;;9.67;100.00
28004;BME280;15330;51.234;6.754;2023-03-14T03:59:22;98598.50;;;9.65;100.00
28004;BME280;15330;51.234;6.754;2023-03-14T04:01:47;98579.81;;;9.65;100.00
28004;BME280;15330;51.234;6.754;2023-03-14T04:04:13;98578.97;;;9.65;100.00
28004;BME280;15330;51.234;6.754;2023-03-14T04:06:39;98576.97;;;9.53;100.00
28004;BME280;15330;51.234;6.754;2023-03-14T04:09:07;98577.34;;;9.57;100.00
28004;BME280;15330;51.234;6.754;2023-03-14T04:11:33;98565.47;;;9.46;100.00
28004;BME280;15330;51.234;6.754;2023-03-14T04:13:58;98567.56;;;9.44;100.00
28004;BME280;15330;51.234;6.754;2023-03-14T04:16:25;98572.03;;;9.50;100.00
28004;BME280;15330;51.234;6.754;2023-03-14T04:18:53;98575.28;;;9.59;100.00
28004;BME280;15330;51.234;6.754;2023-03-14T04:21:19;98584.50;;;9.70;100.00
28004;BME280;15330;51.234;6.754;2023-03-14T04:23:47;98592.09;;;9.73;100.00
28004;BME280;15330;51.234;6.754;2023-03-14T04:26:12;98582.59;;;9.77;100.00
28004;BME280;15330;51.234;6.754;2023-03-14T04:28:40;98589.25;;;9.61;100.00
28004;BME280;15330;51.234;6.754;2023-03-14T04:31:08;98562.59;;;9.48;100.00
28004;BME280;15330;51.234;6.754;2023-03-14T04:33:34;98559.31;;;9.52;100.00
28004;BME280;15330;51.234;6.754;2023-03-14T04:36:08;98553.13;;;9.58;100.00
28004;BME280;15330;51.234;6.754;2023-03-14T04:38:37;98567.84;;;9.74;100.00
28004;BME280;15330;51.234;6.754;2023-03-14T04:41:11;98585.31;;;9.70;100.00
28004;BME280;15330;51.234;6.754;2023-03-14T04:43:39;98551.13;;;9.47;100.00
28004;BME280;15330;51.234;6.754;2023-03-14T04:46:11;98543.94;;;9.48;100.00
28004;BME280;15330;51.234;6.754;2023-03-14T04:48:46;98559.47;;;9.57;100.00
28004;BME280;15330;51.234;6.754;2023-03-14T04:51:18;98554.19;;;9.51;100.00
28004;BME280;15330;51.234;6.754;2023-03-14T04:53:43;98536.75;;;9.48;100.00
28004;BME280;15330;51.234;6.754;2023-03-14T04:56:09;98523.00;;;9.45;100.00
28004;BME280;15330;51.234;6.754;2023-03-14T04:58:34;98526.94;;;9.42;100.00
28004;BME280;15330;51.234;6.754;2023-03-14T05:01:03;98530.63;;;9.35;100.00
28004;BME280;15330;51.234;6.754;2023-03-14T05:03:32;98518.72;;;9.37;100.00
28004;BME280;15330;51.234;6.754;2023-03-14T05:05:57;98516.25;;;9.36;100.00
28004;BME280;15330;51.234;6.754;2023-03-14T05:08:24;98506.03;;;9.33;100.00
28004;BME280;15330;51.234;6.754;2023-03-14T05:10:57;98506.19;;;9.38;100.00
28004;BME280;15330;51.234;6.754;2023-03-14T05:13:23;98514.84;;;9.33;100.00
28004;BME280;15330;51.234;6.754;2023-03-14T05:15:48;98509.03;;;9.49;100.00
28004;BME280;15330;51.234;6.754;2023-03-14T05:18:16;98502.81;;;9.55;100.00
28004;BME280;15330;51.234;6.754;2023-03-14T05:20:41;98496.88;;;9.60;100.00
28004;BME280;15330;51.234;6.754;2023-03-14T05:23:09;98502.03;;;9.55;100.00
28004;BME280;15330;51.234;6.754;2023-03-14T05:25:34;98498.91;;;9.65;100.00
28004;BME280;15330;51.234;6.754;2023-03-14T05:28:00;98492.75;;;9.64;100.00
28004;BME280;15330;51.234;6.754;2023-03-14T05:30:25;98495.63;;;9.63;100.00
28004;BME280;15330;51.234;6.754;2023-03-14T05:32:50;98495.00;;;9.61;100.00
28004;BME280;15330;51.234;6.754;2023-03-14T05:35:16;98487.78;;;9.68;100.00
28004;BME280;15330;51.234;6.754;2023-03-14T05:37:43;98476.69;;;9.71;100.00
28004;BME280;15330;51.234;6.754;2023-03-14T05:40:08;98498.66;;;9.66;100.00
28004;BME280;15330;51.234;6.754;2023-03-14T05:42:35;98485.72;;;9.70;100.00
28004;BME280;15330;51.234;6.754;2023-03-14T05:45:00;98480.59;;;9.68;100.00
28004;BME280;15330;51.234;6.754;2023-03-14T05:47:26;98487.16;;;9.66;100.00
28004;BME280;15330;51.234;6.754;2023-03-14T05:49:51;98479.59;;;9.63;100.00
28004;BME280;15330;51.234;6.754;2023-03-14T05:52:17;98488.78;;;9.73;100.00
28004;BME280;15330;51.234;6.754;2023-03-14T05:54:42;98486.97;;;9.67;100.00
28004;BME280;15330;51.234;6.754;2023-03-14T05:57:08;98488.38;;;9.70;100.00
28004;BME280;15330;51.234;6.754;2023-03-14T05:59:33;98479.69;;;9.81;100.00
28004;BME280;15330;51.234;6.754;2023-03-14T06:01:58;98482.63;;;9.73;100.00
28004;BME280;15330;51.234;6.754;2023-03-14T06:04:24;98483.41;;;9.80;100.00
28004;BME280;15330;51.234;6.754;2023-03-14T06:06:50;98471.94;;;9.73;100.00
28004;BME280;15330;51.234;6.754;2023-03-14T06:09:15;98481.94;;;9.84;100.00
28004;BME280;15330;51.234;6.754;2023-03-14T06:11:41;98479.66;;;9.87;100.00
28004;BME280;15330;51.234;6.754;2023-03-14T06:14:06;98478.59;;;9.95;100.00
28004;BME280;15330;51.234;6.754;2023-03-14T06:16:32;98484.78;;;9.89;100.00
28004;BME280;15330;51.234;6.754;2023-03-14T06:18:57;98493.66;;;9.83;100.00
28004;BME280;15330;51.234;6.754;2023-03-14T06:21:23;98481.34;;;9.82;100.00
28004;BME280;15330;51.234;6.754;2023-03-14T06:23:48;98482.31;;;9.87;100.00
28004;BME280;15330;51.234;6.754;2023-03-14T06:26:13;98480.53;;;9.81;100.00
28004;BME280;15330;51.234;6.754;2023-03-14T06:28:39;98485.84;;;9.81;100.00
28004;BME280;15330;51.234;6.754;2023-03-14T06:31:05;98494.47;;;9.83;100.00
28004;BME280;15330;51.234;6.754;2023-03-14T06:33:30;98484.00;;;9.82;100.00
28004;BME280;15330;51.234;6.754;2023-03-14T06:35:56;98488.94;;;9.85;100.00
28004;BME280;15330;51.234;6.754;2023-03-14T06:38:21;98487.72;;;9.81;100.00
28004;BME280;15330;51.234;6.754;2023-03-14T06:40:46;98484.63;;;9.84;100.00
28004;BME280;15330;51.234;6.754;2023-03-14T06:43:12;98495.09;;;9.79;100.00
28004;BME280;15330;51.234;6.754;2023-03-14T06:45:37;98486.63;;;10.20;100.00
28004;BME280;15330;51.234;6.754;2023-03-14T06:48:03;98498.03;;;10.02;100.00
28004;BME280;15330;51.234;6.754;2023-03-14T06:50:28;98502.75;;;10.07;100.00
28004;BME280;15330;51.234;6.754;2023-03-14T06:52:54;98511.56;;;10.39;100.00
28004;BME280;15330;51.234;6.754;2023-03-14T06:55:19;98507.03;;;10.39;100.00
28004;BME280;15330;51.234;6.754;2023-03-14T06:57:46;98501.59;;;10.27;100.00
28004;BME280;15330;51.234;6.754;2023-03-14T07:00:12;98503.47;;;10.27;100.00
28004;BME280;15330;51.234;6.754;2023-03-14T07:02:38;98504.75;;;10.43;100.00
28004;BME280;15330;51.234;6.754;2023-03-14T07:05:04;98509.66;;;10.46;100.00
28004;BME280;15330;51.234;6.754;2023-03-14T07:07:30;98510.47;;;10.21;100.00
28004;BME280;15330;51.234;6.754;2023-03-14T07:09:55;98504.63;;;10.00;100.00
28004;BME280;15330;51.234;6.754;2023-03-14T07:12:21;98509.22;;;9.92;100.00
28004;BME280;15330;51.234;6.754;2023-03-14T07:14:46;98509.88;;;9.81;100.00
28004;BME280;15330;51.234;6.754;2023-03-14T07:17:12;98509.69;;;9.76;100.00
28004;BME280;15330;51.234;6.754;2023-03-14T07:19:37;98511.13;;;9.79;100.00
28004;BME280;15330;51.234;6.754;2023-03-14T07:22:04;98512.34;;;9.83;100.00
28004;BME280;15330;51.234;6.754;2023-03-14T07:24:29;98517.38;;;9.98;100.00
28004;BME280;15330;51.234;6.754;2023-03-14T07:26:55;98526.66;;;9.95;100.00
28004;BME280;15330;51.234;6.754;2023-03-14T07:29:20;98516.75;;;10.02;100.00
28004;BME280;15330;51.234;6.754;2023-03-14T07:31:46;98508.69;;;10.09;100.00
28004;BME280;15330;51.234;6.754;2023-03-14T07:34:11;98518.31;;;10.10;100.00
28004;BME280;15330;51.234;6.754;2023-03-14T07:36:36;98526.34;;;10.10;100.00
28004;BME280;15330;51.234;6.754;2023-03-14T07:39:02;98516.44;;;10.17;100.00
28004;BME280;15330;51.234;6.754;2023-03-14T07:41:29;98530.38;;;10.25;100.00
28004;BME280;15330;51.234;6.754;2023-03-14T07:43:54;98530.38;;;10.25;100.00
28004;BME280;15330;51.234;6.754;2023-03-14T07:46:23;98526.22;;;10.29;100.00
28004;BME280;15330;51.234;6.754;2023-03-14T07:48:48;98534.47;;;10.28;100.00
28004;BME280;15330;51.234;6.754;2023-03-14T07:51:14;98536.72;;;10.31;100.00
28004;BME280;15330;51.234;6.754;2023-03-14T07:53:39;98540.03;;;10.26;100.00
28004;BME280;15330;51.234;6.754;2023-03-14T07:56:08;98538.47;;;10.69;100.00
28004;BME280;15330;51.234;6.754;2023-03-14T07:58:34;98537.47;;;10.63;100.00
28004;BME280;15330;51.234;6.754;2023-03-14T08:00:59;98547.69;;;10.73;100.00
28004;BME280;15330;51.234;6.754;2023-03-14T08:03:27;98549.63;;;10.59;100.00
28004;BME280;15330;51.234;6.754;2023-03-14T08:05:53;98551.34;;;10.53;100.00
28004;BME280;15330;51.234;6.754;2023-03-14T08:08:18;98550.44;;;10.59;100.00
28004;BME280;15330;51.234;6.754;2023-03-14T08:10:44;98548.34;;;10.68;100.00
28004;BME280;15330;51.234;6.754;2023-03-14T08:13:12;98539.06;;;10.71;100.00
28004;BME280;15330;51.234;6.754;2023-03-14T08:15:37;98549.75;;;10.71;100.00
28004;BME280;15330;51.234;6.754;2023-03-14T08:18:04;98544.63;;;10.69;100.00
28004;BME280;15330;51.234;6.754;2023-03-14T08:20:30;98549.53;;;10.72;100.00
28004;BME280;15330;51.234;6.754;2023-03-14T08:22:56;98546.50;;;10.69;100.00
28004;BME280;15330;51.234;6.754;2023-03-14T08:25:23;98547.69;;;10.73;100.00
28004;BME280;15330;51.234;6.754;2023-03-14T08:27:51;98557.50;;;10.79;100.00
28004;BME280;15330;51.234;6.754;2023-03-14T08:30:18;98554.13;;;10.65;100.00
28004;BME280;15330;51.234;6.754;2023-03-14T08:32:44;98550.25;;;10.61;100.00
28004;BME280;15330;51.234;6.754;2023-03-14T08:35:10;98561.13;;;10.66;100.00
28004;BME280;15330;51.234;6.754;2023-03-14T08:37:36;98554.53;;;10.69;100.00
28004;BME280;15330;51.234;6.754;2023-03-14T08:40:03;98562.28;;;10.70;100.00
28004;BME280;15330;51.234;6.754;2023-03-14T08:42:33;98554.63;;;10.55;100.00
28004;BME280;15330;51.234;6.754;2023-03-14T08:44:58;98561.22;;;10.53;100.00
28004;BME280;15330;51.234;6.754;2023-03-14T08:47:24;98555.97;;;10.40;100.00
28004;BME280;15330;51.234;6.754;2023-03-14T08:49:49;98574.03;;;10.44;100.00
28004;BME280;15330;51.234;6.754;2023-03-14T08:52:15;98579.59;;;10.43;100.00
28004;BME280;15330;51.234;6.754;2023-03-14T08:54:43;98586.56;;;10.44;100.00
28004;BME280;15330;51.234;6.754;2023-03-14T08:57:08;98588.00;;;10.46;100.00
28004;BME280;15330;51.234;6.754;2023-03-14T08:59:34;98589.16;;;10.25;100.00
28004;BME280;15330;51.234;6.754;2023-03-14T09:01:59;98596.72;;;10.35;100.00
28004;BME280;15330;51.234;6.754;2023-03-14T09:04:29;98595.88;;;10.35;100.00
28004;BME280;15330;51.234;6.754;2023-03-14T09:06:54;98598.34;;;10.36;100.00
28004;BME280;15330;51.234;6.754;2023-03-14T09:09:19;98596.53;;;10.30;100.00
28004;BME280;15330;51.234;6.754;2023-03-14T09:11:45;98606.75;;;10.40;100.00
28004;BME280;15330;51.234;6.754;2023-03-14T09:14:10;98616.19;;;10.42;100.00
28004;BME280;15330;51.234;6.754;2023-03-14T09:16:36;98618.69;;;10.37;100.00
28004;BME280;15330;51.234;6.754;2023-03-14T09:19:01;98640.16;;;10.24;100.00
28004;BME280;15330;51.234;6.754;2023-03-14T09:21:27;98685.31;;;9.68;100.00
28004;BME280;15330;51.234;6.754;2023-03-14T09:23:53;98701.59;;;9.40;100.00
28004;BME280;15330;51.234;6.754;2023-03-14T09:26:18;98711.88;;;9.10;100.00
28004;BME280;15330;51.234;6.754;2023-03-14T09:28:44;98727.66;;;9.05;100.00
28004;BME280;15330;51.234;6.754;2023-03-14T09:31:10;98739.75;;;8.88;100.00
28004;BME280;15330;51.234;6.754;2023-03-14T09:33:36;98748.56;;;8.81;100.00
28004;BME280;15330;51.234;6.754;2023-03-14T09:36:03;98766.19;;;8.82;100.00
28004;BME280;15330;51.234;6.754;2023-03-14T09:38:28;98777.84;;;8.75;100.00
28004;BME280;15330;51.234;6.754;2023-03-14T09:40:54;98789.97;;;8.71;100.00
28004;BME280;15330;51.234;6.754;2023-03-14T09:43:24;98796.91;;;8.65;100.00
28004;BME280;15330;51.234;6.754;2023-03-14T09:45:50;98809.44;;;8.71;100.00
28004;BME280;15330;51.234;6.754;2023-03-14T09:48:21;98806.84;;;8.98;100.00
28004;BME280;15330;51.234;6.754;2023-03-14T09:50:52;98827.59;;;8.55;100.00
28004;BME280;15330;51.234;6.754;2023-03-14T09:53:41;98834.59;;;8.56;100.00
28004;BME280;15330;51.234;6.754;2023-03-14T09:56:13;98841.19;;;8.66;100.00
28004;BME280;15330;51.234;6.754;2023-03-14T09:58:42;98846.06;;;8.56;100.00
28004;BME280;15330;51.234;6.754;2023-03-14T10:01:11;98862.69;;;8.58;100.00
28004;BME280;15330;51.234;6.754;2023-03-14T10:03:39;98864.66;;;8.43;100.00
28004;BME280;15330;51.234;6.754;2023-03-14T10:06:13;98885.28;;;8.69;100.00
28004;BME280;15330;51.234;6.754;2023-03-14T10:08:43;98886.88;;;8.63;100.00
28004;BME280;15330;51.234;6.754;2023-03-14T10:11:17;98905.78;;;8.68;100.00
28004;BME280;15330;51.234;6.754;2023-03-14T10:16:31;98916.63;;;8.60;100.00
28004;BME280;15330;51.234;6.754;2023-03-14T10:19:02;98921.59;;;8.70;100.00
28004;BME280;15330;51.234;6.754;2023-03-14T10:21:29;98908.81;;;8.59;100.00
28004;BME280;15330;51.234;6.754;2023-03-14T10:26:48;98953.78;;;8.68;100.00
28004;BME280;15330;51.234;6.754;2023-03-14T10:29:14;98952.94;;;8.68;100.00
28004;BME280;15330;51.234;6.754;2023-03-14T10:31:51;98973.88;;;8.43;100.00
28004;BME280;15330;51.234;6.754;2023-03-14T10:34:23;98981.88;;;8.43;100.00
28004;BME280;15330;51.234;6.754;2023-03-14T10:36:53;98977.56;;;8.42;100.00
28004;BME280;15330;51.234;6.754;2023-03-14T10:39:29;99001.75;;;8.40;100.00
28004;BME280;15330;51.234;6.754;2023-03-14T10:42:03;98997.03;;;8.42;100.00
28004;BME280;15330;51.234;6.754;2023-03-14T10:44:30;99016.41;;;8.30;100.00
28004;BME280;15330;51.234;6.754;2023-03-14T10:47:01;99023.00;;;8.34;100.00
28004;BME280;15330;51.234;6.754;2023-03-14T10:49:30;99028.44;;;8.47;100.00
28004;BME280;15330;51.234;6.754;2023-03-14T10:52:02;99046.31;;;8.53;100.00
28004;BME280;15330;51.234;6.754;2023-03-14T10:54:37;99047.25;;;8.39;100.00
28004;BME280;15330;51.234;6.754;2023-03-14T10:57:04;99061.06;;;8.06;100.00
28004;BME280;15330;51.234;6.754;2023-03-14T10:59:39;99086.66;;;8.07;100.00
28004;BME280;15330;51.234;6.754;2023-03-14T11:02:15;99102.50;;;7.94;100.00
28004;BME280;15330;51.234;6.754;2023-03-14T11:07:37;99131.47;;;8.04;100.00
28004;BME280;15330;51.234;6.754;2023-03-14T11:10:20;99149.75;;;8.07;100.00
28004;BME280;15330;51.234;6.754;2023-03-14T11:13:01;99147.88;;;7.86;100.00
28004;BME280;15330;51.234;6.754;2023-03-14T11:15:42;99155.44;;;7.68;100.00
28004;BME280;15330;51.234;6.754;2023-03-14T11:21:13;99175.28;;;8.01;100.00
28004;BME280;15330;51.234;6.754;2023-03-14T11:26:37;99200.75;;;7.60;100.00
28004;BME280;15330;51.234;6.754;2023-03-14T11:31:44;99216.84;;;7.29;100.00
28004;BME280;15330;51.234;6.754;2023-03-14T11:34:12;99231.53;;;7.25;100.00
28004;BME280;15330;51.234;6.754;2023-03-14T11:36:59;99238.66;;;7.47;100.00
28004;BME280;15330;51.234;6.754;2023-03-14T11:39:27;99236.44;;;7.65;100.00
28004;BME280;15330;51.234;6.754;2023-03-14T11:41:56;99252.38;;;7.51;100.00
28004;BME280;15330;51.234;6.754;2023-03-14T11:44:26;99261.63;;;7.40;100.00
28004;BME280;15330;51.234;6.754;2023-03-14T11:49:45;99266.38;;;7.82;100.00
28004;BME280;15330;51.234;6.754;2023-03-14T11:52:22;99276.03;;;7.98;100.00
28004;BME280;15330;51.234;6.754;2023-03-14T11:54:58;99288.38;;;7.61;100.00
28004;BME280;15330;51.234;6.754;2023-03-14T11:57:25;99296.28;;;7.69;100.00
28004;BME280;15330;51.234;6.754;2023-03-14T12:00:02;99302.16;;;7.80;100.00
28004;BME280;15330;51.234;6.754;2023-03-14T12:05:50;99327.63;;;7.59;100.00
28004;BME280;15330;51.234;6.754;2023-03-14T12:08:41;99340.75;;;7.46;100.00
28004;BME280;15330;51.234;6.754;2023-03-14T12:11:33;99354.50;;;7.27;100.00
28004;BME280;15330;51.234;6.754;2023-03-14T12:14:01;99357.06;;;7.20;100.00
28004;BME280;15330;51.234;6.754;2023-03-14T12:16:35;99367.94;;;7.33;100.00
28004;BME280;15330;51.234;6.754;2023-03-14T12:21:57;99384.63;;;8.02;100.00
28004;BME280;15330;51.234;6.754;2023-03-14T12:24:29;99384.13;;;8.66;98.61
28004;BME280;15330;51.234;6.754;2023-03-14T12:27:00;99393.13;;;9.15;95.39
28004;BME280;15330;51.234;6.754;2023-03-14T12:29:26;99400.38;;;9.22;93.99
28004;BME280;15330;51.234;6.754;2023-03-14T12:32:22;99412.72;;;9.23;93.39
28004;BME280;15330;51.234;6.754;2023-03-14T12:34:48;99423.72;;;8.98;93.30
28004;BME280;15330;51.234;6.754;2023-03-14T12:37:29;99432.28;;;8.79;91.26
28004;BME280;15330;51.234;6.754;2023-03-14T12:40:16;99445.25;;;8.82;89.21
28004;BME280;15330;51.234;6.754;2023-03-14T12:50:13;99464.91;;;8.52;92.27
28004;BME280;15330;51.234;6.754;2023-03-14T13:00:39;99526.72;;;7.33;100.00
28004;BME280;15330;51.234;6.754;2023-03-14T13:03:18;99530.91;;;7.19;100.00
28004;BME280;15330;51.234;6.754;2023-03-14T13:06:00;99543.72;;;7.24;100.00
28004;BME280;15330;51.234;6.754;2023-03-14T13:08:39;99546.34;;;7.32;100.00
28004;BME280;15330;51.234;6.754;2023-03-14T13:11:09;99562.78;;;7.66;100.00
28004;BME280;15330;51.234;6.754;2023-03-14T13:13:37;99571.34;;;7.54;100.00
28004;BME280;15330;51.234;6.754;2023-03-14T13:16:06;99573.34;;;7.52;100.00
28004;BME280;15330;51.234;6.754;2023-03-14T13:18:37;99576.84;;;7.52;100.00
28004;BME280;15330;51.234;6.754;2023-03-14T13:21:25;99581.03;;;7.47;100.00
28004;BME280;15330;51.234;6.754;2023-03-14T13:26:21;99601.75;;;7.90;99.76
28004;BME280;15330;51.234;6.754;2023-03-14T13:28:48;99609.22;;;7.95;98.18
28004;BME280;15330;51.234;6.754;2023-03-14T13:31:26;99603.97;;;8.32;98.65
28004;BME280;15330;51.234;6.754;2023-03-14T13:33:59;99622.50;;;8.71;95.38
28004;BME280;15330;51.234;6.754;2023-03-14T13:36:28;99619.84;;;8.71;94.83
28004;BME280;15330;51.234;6.754;2023-03-14T13:38:59;99634.38;;;8.46;96.06
28004;BME280;15330;51.234;6.754;2023-03-14T13:41:25;99632.78;;;8.06;96.59
28004;BME280;15330;51.234;6.754;2023-03-14T13:44:00;99637.84;;;8.69;96.01
28004;BME280;15330;51.234;6.754;2023-03-14T13:46:35;99634.06;;;8.41;95.80
28004;BME280;15330;51.234;6.754;2023-03-14T13:49:10;99643.97;;;8.24;96.54
28004;BME280;15330;51.234;6.754;2023-03-14T13:51:39;99648.59;;;7.99;97.38